Raceland, LA

2:24 PM CDT on August 30, 2014 (GMT -0500)
Bayou Blue | Change Station
CLOSE
Current Station
Personal Weather Station
Location: Houma, LA
Elevation: 6 ft
Nearby Weather Stations

Elev 6 ft 29.60 °N, 90.62 °W | Updated 17 seconds ago

Rain
Rain
77.5 °F
Feels Like 79 °F
N
1.7
Wind Variable Wind from East
Gusts 3.7 mph

Today
High -- | Low -- °F
--% Chance of Precip.
Yesterday
High -- | Low -- °F
Precip. -- in
6:38 AM 7:26 PM
Waxing Crescent, 24% visible
Pressure 30.04 in
Visibility 5.0 miles
Clouds Mostly Cloudy 3500 ft
Heat Index 79 °F
Dew Point 72 °F
Humidity 84%
Rainfall 0.27 in
Snow Depth Not available.
UV 7 out of 12
Pollen 5.40 out of 12
Air Quality Not available.
Flu Activity Not available.
METAR KHUM 301855Z 14010KT 5SM BR SCT12 BKN035 24/23 A3004 RMK ATIS S VA RY18 OO

More Conditions Fewer Conditions

Pressure 30.04 in
Visibility 5.0 miles
Clouds Mostly Cloudy 3500 ft
Heat Index 79 °F
Dew Point 72 °F
Humidity 84%
Rainfall 0.27 in
Snow Depth Not available.
UV 7 out of 12
Pollen 5.40 out of 12
Air Quality Not available.
Flu Activity Not available.
METAR KHUM 301855Z 14010KT 5SM BR SCT12 BKN035 24/23 A3004 RMK ATIS S VA RY18 OO

More Conditions Fewer Conditions

10-Day Weather Forecast

Almanac

Astronomy

Aug. 30, 2014 Rise Set
Actual Time 6:38 AM CDT 7:26 PM CDT
Civil Twilight 6:14 AM CDT 7:51 PM CDT
Nautical Twilight 5:45 AM CDT 8:19 PM CDT
Astronomical Twilight 5:16 AM CDT 8:49 PM CDT
Moon 11:02 AM CDT 10:26 PM CDT
Length of Visible Light 13h 37m
Length of Day
12h 48m
Tomorrow will be 1m 42s shorter.
Waxing Crescent, 24% of the Moon is Illuminated
Today
Waxing Crescent
Sep 2
First Quarter
Sep 8
Full
Sep 15
Last Quarter
Sep 24
New

Today's Extremes

State Highs State Lows

Community

WunderPhotos

Upload Photos

1,748,608 photos uploaded!

WunderBlogs® & News

Nearby

Snow Depth

Station Depth Elevation
No new snow has been reported.

Earthquake Activity

City Distance Mag. Time & Date
No recent earthquake activity has been reported nearby.
Minimum magnitude displayed is 2.5.

Coastal Water Temperatures

Place Temperature
Amerada Pass, LA 82.0 °F

Nearby Weather Stations